createdAt,value
2023-01-29T00:01:12.809Z,17.00
2023-01-29T00:03:42.140Z,24.70
2023-01-29T00:06:11.234Z,21.00
2023-01-29T00:08:41.053Z,16.30
2023-01-29T00:11:10.404Z,12.20
2023-01-29T00:13:39.236Z,11.90
2023-01-29T00:16:09.734Z,21.80
2023-01-29T00:18:41.869Z,10.50
2023-01-29T00:21:16.146Z,14.10
2023-01-29T00:23:44.991Z,13.30
2023-01-29T00:26:14.603Z,13.30
2023-01-29T00:28:45.490Z,10.40
2023-01-29T00:31:20.818Z,12.60
2023-01-29T00:33:49.960Z,11.00
2023-01-29T00:36:20.050Z,11.00
2023-01-29T00:39:02.928Z,10.60
2023-01-29T00:41:52.030Z,15.00
2023-01-29T00:44:39.659Z,16.10
2023-01-29T00:47:28.505Z,10.40
2023-01-29T00:49:57.808Z,11.40
2023-01-29T00:52:26.700Z,10.70
2023-01-29T00:54:57.898Z,8.50
2023-01-29T00:57:27.960Z,9.80
2023-01-29T00:59:57.767Z,8.50
2023-01-29T01:02:45.629Z,8.50
2023-01-29T01:05:19.860Z,7.80
2023-01-29T01:07:50.787Z,8.00
2023-01-29T01:10:30.765Z,8.80
2023-01-29T01:13:04.244Z,8.00
2023-01-29T01:15:38.326Z,9.00
2023-01-29T01:18:06.806Z,8.30
2023-01-29T01:20:35.651Z,8.00
2023-01-29T01:23:04.365Z,7.10
2023-01-29T01:25:32.870Z,8.90
2023-01-29T01:28:01.768Z,8.40
2023-01-29T01:30:30.538Z,8.20
2023-01-29T01:32:58.909Z,8.10
2023-01-29T01:35:27.702Z,7.50
2023-01-29T01:37:56.004Z,9.90
2023-01-29T01:40:25.503Z,9.90
2023-01-29T01:42:58.331Z,8.60
2023-01-29T01:45:29.983Z,7.50
2023-01-29T01:48:02.080Z,8.40
2023-01-29T01:50:35.787Z,11.00
2023-01-29T01:53:09.434Z,8.40
2023-01-29T01:55:47.904Z,8.10
2023-01-29T01:58:26.331Z,7.80
2023-01-29T02:00:55.224Z,7.70
2023-01-29T02:03:43.047Z,7.70
2023-01-29T02:06:31.285Z,7.60
2023-01-29T02:09:25.293Z,7.90
2023-01-29T02:11:54.188Z,7.60
2023-01-29T02:14:23.462Z,7.70
2023-01-29T02:16:52.546Z,7.80
2023-01-29T02:19:59.235Z,8.20
2023-01-29T02:23:27.850Z,7.30
2023-01-29T02:26:04.930Z,6.50
2023-01-29T02:28:57.725Z,9.70
2023-01-29T02:31:34.765Z,9.10
2023-01-29T02:34:29.433Z,7.80
2023-01-29T02:37:08.461Z,7.40
2023-01-29T02:39:42.466Z,7.50
2023-01-29T02:42:27.672Z,7.40
2023-01-29T02:44:58.976Z,7.50
2023-01-29T02:48:01.709Z,8.80
2023-01-29T02:50:49.504Z,8.10
2023-01-29T02:53:41.909Z,8.10
2023-01-29T02:56:13.530Z,7.80
2023-01-29T03:01:34.236Z,8.80
2023-01-29T03:04:06.451Z,9.10
2023-01-29T03:06:40.514Z,10.30
2023-01-29T03:09:13.158Z,9.10
2023-01-29T03:11:43.262Z,9.20
2023-01-29T03:14:24.350Z,13.60
2023-01-29T03:16:53.648Z,10.10
2023-01-29T03:19:30.639Z,10.00
2023-01-29T03:22:01.783Z,14.20
2023-01-29T03:25:13.276Z,10.20
2023-01-29T03:28:05.644Z,9.00
2023-01-29T03:31:01.304Z,9.20
2023-01-29T03:33:41.011Z,7.90
2023-01-29T03:36:13.922Z,10.70
2023-01-29T03:38:43.473Z,9.40
2023-01-29T03:41:23.833Z,9.30
2023-01-29T03:44:41.866Z,8.30
2023-01-29T03:47:27.210Z,11.20
2023-01-29T03:50:02.381Z,8.10
2023-01-29T03:52:41.818Z,13.60
2023-01-29T03:55:16.069Z,8.20
2023-01-29T03:57:53.698Z,23.70
2023-01-29T04:00:32.862Z,14.30
2023-01-29T04:03:06.894Z,9.00
2023-01-29T04:05:40.883Z,10.50
2023-01-29T04:08:18.022Z,8.60
2023-01-29T04:10:47.218Z,7.30
2023-01-29T04:13:17.901Z,8.00
2023-01-29T04:15:54.674Z,7.70
2023-01-29T04:18:32.141Z,9.30
2023-01-29T04:21:08.734Z,8.20
2023-01-29T04:23:38.139Z,8.40
2023-01-29T04:26:45.937Z,8.50
2023-01-29T08:03:27.267Z,17.00
2023-01-29T08:06:01.080Z,14.80
2023-01-29T08:08:30.457Z,16.40
2023-01-29T08:11:05.848Z,17.00
2023-01-29T08:13:38.271Z,16.50
2023-01-29T08:16:08.078Z,16.30
2023-01-29T08:18:38.599Z,15.80
2023-01-29T08:21:08.223Z,12.20
2023-01-29T08:23:37.946Z,17.20
2023-01-29T08:26:06.923Z,17.00
2023-01-29T08:28:37.482Z,16.00
2023-01-29T08:31:18.044Z,19.40
2023-01-29T08:33:51.071Z,16.00
2023-01-29T08:36:20.406Z,15.30
2023-01-29T08:38:50.414Z,16.10
2023-01-29T08:41:20.133Z,17.20
2023-01-29T08:44:11.766Z,17.50
2023-01-29T08:46:42.179Z,16.70
2023-01-29T08:49:11.892Z,18.90
2023-01-29T08:51:41.198Z,16.80
2023-01-29T08:54:10.316Z,16.00
2023-01-29T08:56:39.583Z,17.70
2023-01-29T08:59:08.331Z,19.40
2023-01-29T09:01:37.158Z,16.10
2023-01-29T09:04:06.149Z,18.10
2023-01-29T09:06:35.246Z,19.20
2023-01-29T09:09:04.951Z,17.50
2023-01-29T09:11:34.735Z,17.10
2023-01-29T09:14:03.758Z,18.30
2023-01-29T09:16:32.663Z,17.70
2023-01-29T09:19:01.643Z,18.90
2023-01-29T09:21:31.059Z,20.20
2023-01-29T09:24:00.749Z,19.50
2023-01-29T09:26:31.010Z,19.70
2023-01-29T09:29:00.790Z,17.40
2023-01-29T09:31:29.846Z,24.30
2023-01-29T09:33:58.489Z,19.80
2023-01-29T09:36:27.664Z,17.60
2023-01-29T09:38:56.958Z,20.70
2023-01-29T09:41:49.745Z,18.40
2023-01-29T09:44:26.692Z,19.20
2023-01-29T09:46:55.787Z,16.80
2023-01-29T09:49:51.303Z,19.00
2023-01-29T09:52:25.845Z,26.00
2023-01-29T09:55:12.939Z,16.70
2023-01-29T09:57:47.460Z,20.20
2023-01-29T10:01:04.443Z,16.60
2023-01-29T10:04:41.414Z,23.70
2023-01-29T10:07:13.439Z,16.50
2023-01-29T10:09:58.450Z,17.90
2023-01-29T10:16:41.655Z,16.60
2023-01-29T10:19:19.342Z,23.80
2023-01-29T10:22:01.477Z,20.90
2023-01-29T10:27:36.202Z,17.90
2023-01-29T10:30:10.541Z,17.30
2023-01-29T10:32:41.038Z,16.90
2023-01-29T10:35:26.804Z,17.10
2023-01-29T10:38:09.986Z,17.90
2023-01-29T10:40:43.258Z,17.40
2023-01-29T10:43:45.058Z,18.00
2023-01-29T10:46:36.835Z,17.20
2023-01-29T10:49:05.959Z,17.80
2023-01-29T10:52:07.076Z,16.50
2023-01-29T10:54:37.354Z,16.80
2023-01-29T10:57:09.463Z,18.30
2023-01-29T10:59:43.751Z,18.70
2023-01-29T11:02:16.462Z,19.10
2023-01-29T11:04:45.631Z,17.70
2023-01-29T11:07:15.165Z,22.30
2023-01-29T11:09:58.526Z,17.40
2023-01-29T11:12:30.944Z,16.30
2023-01-29T11:15:14.509Z,23.20
2023-01-29T11:18:07.248Z,18.40
2023-01-29T11:20:36.346Z,20.80
2023-01-29T11:23:07.569Z,19.10
2023-01-29T11:25:39.246Z,16.70
2023-01-29T11:28:09.605Z,22.00
2023-01-29T11:30:39.427Z,16.80
2023-01-29T11:33:24.142Z,15.20
2023-01-29T11:35:53.542Z,19.90
2023-01-29T11:38:27.445Z,14.70
2023-01-29T11:41:16.216Z,14.30
2023-01-29T11:46:18.185Z,16.50
2023-01-29T11:48:50.370Z,17.80
2023-01-29T11:51:24.068Z,15.70
2023-01-29T11:54:01.040Z,17.30
2023-01-29T11:56:40.065Z,14.20
2023-01-29T11:59:48.828Z,15.50
2023-01-29T12:02:31.200Z,19.60
2023-01-29T12:05:04.049Z,14.90
2023-01-29T12:07:33.375Z,59.80
2023-01-29T12:10:02.413Z,17.30
2023-01-29T12:12:40.310Z,17.00
2023-01-29T12:15:22.685Z,20.80
2023-01-29T12:18:12.279Z,16.80
2023-01-29T12:20:54.739Z,18.20
2023-01-29T12:23:35.014Z,18.80
2023-01-29T12:26:24.738Z,15.30
2023-01-29T12:29:12.529Z,15.90
2023-01-29T12:31:48.760Z,16.90
2023-01-29T12:34:28.028Z,19.30
2023-01-29T12:37:03.818Z,20.20
2023-01-29T12:39:32.939Z,14.20
2023-01-29T12:42:11.423Z,18.40
2023-01-29T12:44:43.928Z,23.60
2023-01-29T12:47:20.838Z,17.30
2023-01-29T12:49:52.804Z,17.20
2023-01-29T12:52:35.480Z,12.40
2023-01-29T12:55:17.123Z,16.80
2023-01-29T12:58:00.308Z,14.40
2023-01-29T16:51:32.040Z,10.10
2023-01-29T16:54:04.192Z,9.30
2023-01-29T16:56:33.258Z,8.70
2023-01-29T16:59:03.693Z,9.40
2023-01-29T17:01:33.264Z,8.40
2023-01-29T17:04:07.926Z,8.60
2023-01-29T17:06:46.183Z,8.60
2023-01-29T17:09:26.752Z,10.70
2023-01-29T17:12:02.083Z,12.00
2023-01-29T17:14:32.739Z,10.40
2023-01-29T17:17:18.240Z,7.70
2023-01-29T17:19:48.323Z,8.30
2023-01-29T17:22:17.621Z,8.50
2023-01-29T17:24:46.616Z,8.50
2023-01-29T17:27:21.024Z,9.60
2023-01-29T17:29:52.033Z,10.00
2023-01-29T17:32:23.018Z,10.90
2023-01-29T17:34:53.370Z,9.40
2023-01-29T17:37:22.550Z,9.10
2023-01-29T17:39:52.967Z,9.90
2023-01-29T17:42:22.056Z,9.20
2023-01-29T17:44:51.664Z,8.00
2023-01-29T17:47:23.623Z,8.50
2023-01-29T17:49:53.847Z,10.80
2023-01-29T17:52:22.940Z,11.10
2023-01-29T17:54:51.867Z,9.50
2023-01-29T17:57:21.131Z,12.30
2023-01-29T17:59:50.431Z,8.90
2023-01-29T18:02:29.100Z,12.30
2023-01-29T18:04:59.604Z,10.00
2023-01-29T18:07:28.501Z,14.30
2023-01-29T18:09:58.083Z,12.70
2023-01-29T18:12:27.121Z,10.70
2023-01-29T18:14:56.681Z,8.70
2023-01-29T18:17:26.419Z,8.90
2023-01-29T18:20:00.640Z,13.00
2023-01-29T18:22:32.169Z,9.50
2023-01-29T18:25:02.207Z,13.10
2023-01-29T18:27:33.112Z,13.50
2023-01-29T18:30:02.510Z,11.00
2023-01-29T18:32:32.425Z,9.70
2023-01-29T18:35:01.579Z,8.50
2023-01-29T18:37:39.981Z,9.70
2023-01-29T18:40:10.365Z,10.80
2023-01-29T18:42:40.874Z,8.80
2023-01-29T18:45:11.440Z,10.30
2023-01-29T18:47:41.029Z,9.20
2023-01-29T18:50:11.190Z,10.80
2023-01-29T18:52:41.585Z,7.30
2023-01-29T18:55:10.891Z,10.80
2023-01-29T18:58:24.928Z,11.00
2023-01-29T19:00:30.575Z,12.90
2023-01-29T19:03:01.123Z,13.60
2023-01-29T19:05:35.079Z,11.50
2023-01-29T19:08:06.048Z,14.00
2023-01-29T19:10:37.058Z,17.00
2023-01-29T19:13:09.264Z,21.50
2023-01-29T19:15:42.595Z,25.30
2023-01-29T19:18:14.814Z,23.40
2023-01-29T19:20:45.352Z,23.60
2023-01-29T19:23:14.485Z,23.50
2023-01-29T19:25:43.813Z,23.90
2023-01-29T19:28:12.773Z,22.20
2023-01-29T19:30:42.352Z,20.10
2023-01-29T19:33:12.359Z,17.30
2023-01-29T19:35:45.068Z,17.40
2023-01-29T19:38:35.767Z,19.00
2023-01-29T19:41:06.062Z,17.00
2023-01-29T19:43:35.499Z,15.20
2023-01-29T19:46:05.928Z,13.90
2023-01-29T19:48:35.120Z,14.50
2023-01-29T19:51:09.551Z,15.70
2023-01-29T19:53:39.745Z,16.30
2023-01-29T19:56:10.286Z,17.20
2023-01-29T19:58:39.455Z,20.60
2023-01-29T20:01:19.454Z,20.10
2023-01-29T20:03:48.923Z,20.40
2023-01-29T20:06:18.924Z,18.30
2023-01-29T20:08:48.333Z,20.00
2023-01-29T20:11:18.840Z,20.30
2023-01-29T20:13:50.416Z,18.70
2023-01-29T20:16:19.958Z,19.80
2023-01-29T20:18:49.921Z,19.20
2023-01-29T20:21:23.023Z,19.90
2023-01-29T20:23:52.421Z,18.10
2023-01-29T20:26:22.395Z,18.20
2023-01-29T20:28:51.942Z,19.50
2023-01-29T20:31:21.460Z,21.30
2023-01-29T20:33:51.064Z,18.90
2023-01-29T20:36:20.460Z,16.50
2023-01-29T20:38:49.455Z,17.20
2023-01-29T20:41:19.520Z,18.50
2023-01-29T20:43:51.017Z,19.50
2023-01-29T20:46:21.092Z,16.20
2023-01-29T20:48:53.489Z,22.20
2023-01-29T20:51:22.594Z,17.90
2023-01-29T20:53:52.207Z,18.40
2023-01-29T20:56:30.983Z,17.60
2023-01-29T20:59:10.068Z,15.70
2023-01-29T21:01:38.738Z,18.40
2023-01-29T21:04:07.323Z,18.60
2023-01-29T21:06:36.012Z,18.60
2023-01-29T21:09:04.692Z,17.80
2023-01-29T21:11:35.737Z,18.50
2023-01-29T21:14:04.726Z,20.30
2023-01-29T21:16:34.773Z,28.60
2023-01-29T21:19:04.047Z,18.80
2023-01-29T21:21:34.989Z,14.60
2023-01-29T21:24:05.554Z,16.00
2023-01-29T21:26:34.531Z,14.40
2023-01-29T21:29:03.187Z,18.60
2023-01-29T21:31:33.467Z,16.40
2023-01-29T21:34:02.003Z,17.90
2023-01-29T21:36:31.394Z,18.50
2023-01-29T21:39:00.184Z,15.80
2023-01-29T21:41:46.999Z,15.30
2023-01-29T21:44:15.989Z,11.40
2023-01-29T21:46:44.978Z,9.80
2023-01-29T21:49:13.766Z,9.90
2023-01-29T21:51:43.267Z,12.60
2023-01-29T21:54:12.672Z,14.60
2023-01-29T21:56:41.767Z,11.70
2023-01-29T21:59:11.744Z,12.50
2023-01-29T22:01:42.469Z,13.90
2023-01-29T22:04:11.915Z,13.70
2023-01-29T22:06:40.564Z,13.00
2023-01-29T22:09:09.759Z,15.50
2023-01-29T22:11:38.898Z,18.00
2023-01-29T22:14:08.402Z,22.20
2023-01-29T22:16:37.634Z,27.80
2023-01-29T22:19:06.797Z,31.50
2023-01-29T22:21:36.014Z,32.40
2023-01-29T22:24:05.738Z,31.00
2023-01-29T22:26:35.816Z,27.40
2023-01-29T22:29:04.733Z,27.50
2023-01-29T22:31:33.909Z,30.50
2023-01-29T22:34:02.803Z,28.30
2023-01-29T22:36:32.943Z,24.80
2023-01-29T22:39:02.221Z,28.70
2023-01-29T22:41:31.425Z,23.10
2023-01-29T22:44:01.026Z,24.70
2023-01-29T22:46:29.545Z,28.10
2023-01-29T22:48:58.624Z,28.20
2023-01-29T22:51:27.900Z,22.80
2023-01-29T22:53:57.304Z,23.40
2023-01-29T22:56:29.847Z,25.50
2023-01-29T22:59:00.210Z,29.80
2023-01-29T23:01:30.365Z,28.50
2023-01-29T23:04:01.828Z,20.00
2023-01-29T23:06:31.011Z,18.40
2023-01-29T23:09:00.581Z,17.70
2023-01-29T23:11:29.568Z,17.00
2023-01-29T23:13:58.969Z,18.10
2023-01-29T23:16:28.701Z,18.00
2023-01-29T23:18:57.476Z,20.80
2023-01-29T23:21:27.997Z,21.00
2023-01-29T23:23:59.861Z,19.70
2023-01-29T23:26:48.024Z,17.10
2023-01-29T23:29:16.788Z,16.50
2023-01-29T23:31:45.554Z,16.90
2023-01-29T23:34:14.561Z,18.70
2023-01-29T23:36:43.350Z,20.80
2023-01-29T23:39:11.943Z,21.10
2023-01-29T23:41:40.523Z,24.10
2023-01-29T23:44:10.128Z,23.20
2023-01-29T23:46:40.427Z,22.70
2023-01-29T23:49:09.246Z,20.90
2023-01-29T23:51:38.235Z,22.80
2023-01-29T23:54:07.430Z,21.60
2023-01-29T23:56:36.338Z,22.40
2023-01-29T23:59:09.131Z,24.60
